Terminal Aerodrome Forecast
Issued by NWS Sioux Falls, SD

Home | Current Version | Previous Version | Text Only | Print | Product List | Glossary Off
Versions: 1 2 3 4 5 6 7 8 9 10 11 12 13 14 15

932
FTUS43 KFSD 211139
TAFHON
TAF
KHON 211139Z 2112/2212 09006KT P6SM SCT025 BKN040
     FM211400 10005KT P6SM BKN015
     FM211500 06012KT P6SM VCTS BKN015 OVC040CB
     FM211700 03008KT 5SM TSRA BKN020CB
     FM211900 02006KT P6SM BKN050
     FM220100 35009KT P6SM SCT120
     FM221100 33005KT P6SM FEW250=

USA.gov is the U.S. government's official web portal to all federal, state and local government web resources and services.